sensor_id;sensor_type;location;lat;lon;timestamp;temperature;humidity
51661;DHT22;37741;49.748;8.490;2023-06-14T00:01:02;26.10;35.30
51661;DHT22;37741;49.748;8.490;2023-06-14T00:03:31;26.00;35.30
51661;DHT22;37741;49.748;8.490;2023-06-14T00:05:58;26.00;35.40
51661;DHT22;37741;49.748;8.490;2023-06-14T00:08:23;26.00;35.50
51661;DHT22;37741;49.748;8.490;2023-06-14T00:10:51;26.00;35.40
51661;DHT22;37741;49.748;8.490;2023-06-14T00:13:16;25.90;35.40
51661;DHT22;37741;49.748;8.490;2023-06-14T00:15:42;25.90;35.40
51661;DHT22;37741;49.748;8.490;2023-06-14T00:18:08;25.90;35.50
51661;DHT22;37741;49.748;8.490;2023-06-14T00:20:36;25.90;35.60
51661;DHT22;37741;49.748;8.490;2023-06-14T00:23:02;25.80;35.60
51661;DHT22;37741;49.748;8.490;2023-06-14T00:25:28;25.80;35.70
51661;DHT22;37741;49.748;8.490;2023-06-14T00:27:55;25.70;35.80
51661;DHT22;37741;49.748;8.490;2023-06-14T00:30:21;25.70;35.80
51661;DHT22;37741;49.748;8.490;2023-06-14T00:32:47;25.60;35.90
51661;DHT22;37741;49.748;8.490;2023-06-14T00:35:13;25.60;36.00
51661;DHT22;37741;49.748;8.490;2023-06-14T00:37:39;25.50;36.00
51661;DHT22;37741;49.748;8.490;2023-06-14T00:40:05;25.50;36.10
51661;DHT22;37741;49.748;8.490;2023-06-14T00:42:31;25.50;36.10
51661;DHT22;37741;49.748;8.490;2023-06-14T00:44:57;25.40;36.10
51661;DHT22;37741;49.748;8.490;2023-06-14T00:47:23;25.40;36.20
51661;DHT22;37741;49.748;8.490;2023-06-14T00:49:55;25.30;36.20
51661;DHT22;37741;49.748;8.490;2023-06-14T00:52:22;25.30;36.30
51661;DHT22;37741;49.748;8.490;2023-06-14T00:54:49;25.30;36.40
51661;DHT22;37741;49.748;8.490;2023-06-14T00:57:15;25.20;36.30
51661;DHT22;37741;49.748;8.490;2023-06-14T00:59:46;25.20;36.40
51661;DHT22;37741;49.748;8.490;2023-06-14T01:02:13;25.10;36.40
51661;DHT22;37741;49.748;8.490;2023-06-14T01:04:40;25.10;36.50
51661;DHT22;37741;49.748;8.490;2023-06-14T01:13:17;25.00;36.60
51661;DHT22;37741;49.748;8.490;2023-06-14T01:15:46;24.90;36.70
51661;DHT22;37741;49.748;8.490;2023-06-14T01:18:12;24.80;36.70
51661;DHT22;37741;49.748;8.490;2023-06-14T01:20:43;24.80;36.80
51661;DHT22;37741;49.748;8.490;2023-06-14T01:23:11;24.70;36.90
51661;DHT22;37741;49.748;8.490;2023-06-14T01:25:39;24.70;36.90
51661;DHT22;37741;49.748;8.490;2023-06-14T01:28:06;24.60;36.90
51661;DHT22;37741;49.748;8.490;2023-06-14T01:30:37;24.60;37.10
51661;DHT22;37741;49.748;8.490;2023-06-14T01:33:04;24.50;37.10
51661;DHT22;37741;49.748;8.490;2023-06-14T01:35:29;24.40;37.10
51661;DHT22;37741;49.748;8.490;2023-06-14T01:37:56;24.40;37.20
51661;DHT22;37741;49.748;8.490;2023-06-14T01:40:22;24.40;37.30
51661;DHT22;37741;49.748;8.490;2023-06-14T01:42:50;24.40;37.40
51661;DHT22;37741;49.748;8.490;2023-06-14T01:45:16;24.30;37.50
51661;DHT22;37741;49.748;8.490;2023-06-14T01:47:44;24.20;37.60
51661;DHT22;37741;49.748;8.490;2023-06-14T01:50:10;24.20;37.60
51661;DHT22;37741;49.748;8.490;2023-06-14T01:52:37;24.10;37.80
51661;DHT22;37741;49.748;8.490;2023-06-14T01:55:06;24.10;38.10
51661;DHT22;37741;49.748;8.490;2023-06-14T01:57:33;24.00;38.00
51661;DHT22;37741;49.748;8.490;2023-06-14T01:59:59;24.00;38.10
51661;DHT22;37741;49.748;8.490;2023-06-14T02:02:24;23.90;38.00
51661;DHT22;37741;49.748;8.490;2023-06-14T02:04:50;23.80;38.00
51661;DHT22;37741;49.748;8.490;2023-06-14T02:07:15;23.80;38.20
51661;DHT22;37741;49.748;8.490;2023-06-14T02:09:41;23.80;38.30
51661;DHT22;37741;49.748;8.490;2023-06-14T02:12:07;23.70;38.40
51661;DHT22;37741;49.748;8.490;2023-06-14T02:14:33;23.70;38.40
51661;DHT22;37741;49.748;8.490;2023-06-14T02:16:59;23.70;38.40
51661;DHT22;37741;49.748;8.490;2023-06-14T02:19:26;23.60;38.40
51661;DHT22;37741;49.748;8.490;2023-06-14T02:21:52;23.60;38.60
51661;DHT22;37741;49.748;8.490;2023-06-14T02:24:17;23.50;38.50
51661;DHT22;37741;49.748;8.490;2023-06-14T02:26:43;23.50;38.80
51661;DHT22;37741;49.748;8.490;2023-06-14T02:29:08;23.40;38.80
51661;DHT22;37741;49.748;8.490;2023-06-14T02:31:36;23.40;38.80
51661;DHT22;37741;49.748;8.490;2023-06-14T02:34:02;23.40;38.90
51661;DHT22;37741;49.748;8.490;2023-06-14T02:36:27;23.30;39.00
51661;DHT22;37741;49.748;8.490;2023-06-14T02:38:56;23.30;39.20
51661;DHT22;37741;49.748;8.490;2023-06-14T02:41:23;23.20;39.20
51661;DHT22;37741;49.748;8.490;2023-06-14T02:43:49;23.20;39.30
51661;DHT22;37741;49.748;8.490;2023-06-14T02:46:14;23.10;39.40
51661;DHT22;37741;49.748;8.490;2023-06-14T02:48:40;23.10;39.40
51661;DHT22;37741;49.748;8.490;2023-06-14T02:51:06;23.00;39.50
51661;DHT22;37741;49.748;8.490;2023-06-14T02:53:33;23.00;39.60
51661;DHT22;37741;49.748;8.490;2023-06-14T02:55:59;22.90;39.60
51661;DHT22;37741;49.748;8.490;2023-06-14T02:58:26;22.90;39.60
51661;DHT22;37741;49.748;8.490;2023-06-14T03:00:52;22.90;39.70
51661;DHT22;37741;49.748;8.490;2023-06-14T03:03:20;22.90;39.70
51661;DHT22;37741;49.748;8.490;2023-06-14T03:05:48;22.90;39.70
51661;DHT22;37741;49.748;8.490;2023-06-14T03:08:18;22.90;39.70
51661;DHT22;37741;49.748;8.490;2023-06-14T03:10:47;22.90;39.70
51661;DHT22;37741;49.748;8.490;2023-06-14T03:13:14;22.90;39.80
51661;DHT22;37741;49.748;8.490;2023-06-14T03:15:39;22.90;39.80
51661;DHT22;37741;49.748;8.490;2023-06-14T03:18:08;22.80;39.90
51661;DHT22;37741;49.748;8.490;2023-06-14T03:20:35;22.80;39.90
51661;DHT22;37741;49.748;8.490;2023-06-14T03:23:02;22.80;39.90
51661;DHT22;37741;49.748;8.490;2023-06-14T03:25:28;22.80;39.90
51661;DHT22;37741;49.748;8.490;2023-06-14T03:27:58;22.80;40.00
51661;DHT22;37741;49.748;8.490;2023-06-14T03:30:24;22.70;40.00
51661;DHT22;37741;49.748;8.490;2023-06-14T03:32:50;22.70;40.00
51661;DHT22;37741;49.748;8.490;2023-06-14T03:35:18;22.60;40.00
51661;DHT22;37741;49.748;8.490;2023-06-14T03:37:45;22.60;40.10
51661;DHT22;37741;49.748;8.490;2023-06-14T03:40:12;22.60;40.30
51661;DHT22;37741;49.748;8.490;2023-06-14T03:42:38;22.60;40.40
51661;DHT22;37741;49.748;8.490;2023-06-14T03:45:05;22.50;40.30
51661;DHT22;37741;49.748;8.490;2023-06-14T03:47:31;22.50;40.60
51661;DHT22;37741;49.748;8.490;2023-06-14T03:49:57;22.40;40.50
51661;DHT22;37741;49.748;8.490;2023-06-14T03:52:23;22.50;40.60
51661;DHT22;37741;49.748;8.490;2023-06-14T03:54:49;22.40;41.20
51661;DHT22;37741;49.748;8.490;2023-06-14T03:57:15;22.40;40.70
51661;DHT22;37741;49.748;8.490;2023-06-14T03:59:41;22.30;40.70
51661;DHT22;37741;49.748;8.490;2023-06-14T04:02:07;22.30;40.80
51661;DHT22;37741;49.748;8.490;2023-06-14T04:04:35;22.20;40.80
51661;DHT22;37741;49.748;8.490;2023-06-14T04:07:01;22.20;41.00
51661;DHT22;37741;49.748;8.490;2023-06-14T04:09:31;22.20;41.10
51661;DHT22;37741;49.748;8.490;2023-06-14T04:11:57;22.10;41.30
51661;DHT22;37741;49.748;8.490;2023-06-14T04:14:23;22.10;41.50
51661;DHT22;37741;49.748;8.490;2023-06-14T04:16:49;22.00;41.50
51661;DHT22;37741;49.748;8.490;2023-06-14T04:19:15;21.90;41.50
51661;DHT22;37741;49.748;8.490;2023-06-14T04:21:41;21.90;41.70
51661;DHT22;37741;49.748;8.490;2023-06-14T04:24:07;21.80;41.80
51661;DHT22;37741;49.748;8.490;2023-06-14T04:26:38;21.80;42.00
51661;DHT22;37741;49.748;8.490;2023-06-14T04:29:05;21.70;42.00
51661;DHT22;37741;49.748;8.490;2023-06-14T04:31:31;21.70;42.20
51661;DHT22;37741;49.748;8.490;2023-06-14T04:33:59;21.60;42.40
51661;DHT22;37741;49.748;8.490;2023-06-14T04:36:25;21.60;42.50
51661;DHT22;37741;49.748;8.490;2023-06-14T04:38:53;21.50;42.50
51661;DHT22;37741;49.748;8.490;2023-06-14T04:41:20;21.50;42.70
51661;DHT22;37741;49.748;8.490;2023-06-14T04:43:48;21.40;42.70
51661;DHT22;37741;49.748;8.490;2023-06-14T04:46:14;21.40;42.70
51661;DHT22;37741;49.748;8.490;2023-06-14T04:48:41;21.40;42.90
51661;DHT22;37741;49.748;8.490;2023-06-14T04:51:08;21.40;42.90
51661;DHT22;37741;49.748;8.490;2023-06-14T04:53:35;21.30;42.90
51661;DHT22;37741;49.748;8.490;2023-06-14T04:56:01;21.30;42.90
51661;DHT22;37741;49.748;8.490;2023-06-14T04:58:28;21.30;43.00
51661;DHT22;37741;49.748;8.490;2023-06-14T05:00:54;21.30;43.10
51661;DHT22;37741;49.748;8.490;2023-06-14T05:03:21;21.30;43.10
51661;DHT22;37741;49.748;8.490;2023-06-14T05:05:47;21.20;43.10
51661;DHT22;37741;49.748;8.490;2023-06-14T05:08:13;21.20;43.30
51661;DHT22;37741;49.748;8.490;2023-06-14T05:10:39;21.20;43.30
51661;DHT22;37741;49.748;8.490;2023-06-14T05:13:04;21.20;43.50
51661;DHT22;37741;49.748;8.490;2023-06-14T05:15:30;21.20;43.40
51661;DHT22;37741;49.748;8.490;2023-06-14T05:17:56;21.20;43.50
51661;DHT22;37741;49.748;8.490;2023-06-14T05:20:22;21.20;43.60
51661;DHT22;37741;49.748;8.490;2023-06-14T05:22:50;21.10;43.60
51661;DHT22;37741;49.748;8.490;2023-06-14T05:25:17;21.10;43.80
51661;DHT22;37741;49.748;8.490;2023-06-14T05:27:44;21.10;43.80
51661;DHT22;37741;49.748;8.490;2023-06-14T05:30:10;21.10;43.80
51661;DHT22;37741;49.748;8.490;2023-06-14T05:32:36;21.10;44.60
51661;DHT22;37741;49.748;8.490;2023-06-14T05:35:01;21.10;44.00
51661;DHT22;37741;49.748;8.490;2023-06-14T05:37:27;21.10;44.70
51661;DHT22;37741;49.748;8.490;2023-06-14T05:39:52;21.10;44.00
51661;DHT22;37741;49.748;8.490;2023-06-14T05:42:18;21.10;44.00
51661;DHT22;37741;49.748;8.490;2023-06-14T05:44:44;21.10;44.00
51661;DHT22;37741;49.748;8.490;2023-06-14T05:47:09;21.10;44.10
51661;DHT22;37741;49.748;8.490;2023-06-14T05:49:35;21.20;44.20
51661;DHT22;37741;49.748;8.490;2023-06-14T05:52:00;21.20;44.30
51661;DHT22;37741;49.748;8.490;2023-06-14T05:54:26;21.20;44.20
51661;DHT22;37741;49.748;8.490;2023-06-14T05:56:51;21.30;44.20
51661;DHT22;37741;49.748;8.490;2023-06-14T05:59:17;21.30;44.20
51661;DHT22;37741;49.748;8.490;2023-06-14T06:01:43;21.40;44.10
51661;DHT22;37741;49.748;8.490;2023-06-14T06:04:09;21.40;44.00
51661;DHT22;37741;49.748;8.490;2023-06-14T06:06:34;21.40;44.00
51661;DHT22;37741;49.748;8.490;2023-06-14T06:09:01;21.50;44.00
51661;DHT22;37741;49.748;8.490;2023-06-14T06:11:26;21.50;43.90
51661;DHT22;37741;49.748;8.490;2023-06-14T06:13:52;21.60;44.00
51661;DHT22;37741;49.748;8.490;2023-06-14T06:16:18;21.60;43.80
51661;DHT22;37741;49.748;8.490;2023-06-14T06:18:43;21.60;43.70
51661;DHT22;37741;49.748;8.490;2023-06-14T06:21:09;21.70;43.70
51661;DHT22;37741;49.748;8.490;2023-06-14T06:23:34;21.80;43.60
51661;DHT22;37741;49.748;8.490;2023-06-14T06:26:00;21.90;43.60
51661;DHT22;37741;49.748;8.490;2023-06-14T06:28:26;21.90;43.40
51661;DHT22;37741;49.748;8.490;2023-06-14T06:30:52;21.90;43.30
51661;DHT22;37741;49.748;8.490;2023-06-14T06:33:18;22.00;43.30
51661;DHT22;37741;49.748;8.490;2023-06-14T06:35:44;22.10;43.20
51661;DHT22;37741;49.748;8.490;2023-06-14T06:38:10;22.10;43.20
51661;DHT22;37741;49.748;8.490;2023-06-14T06:40:36;22.10;43.10
51661;DHT22;37741;49.748;8.490;2023-06-14T06:43:02;22.10;43.10
51661;DHT22;37741;49.748;8.490;2023-06-14T06:45:28;22.20;43.10
51661;DHT22;37741;49.748;8.490;2023-06-14T06:47:54;22.20;43.00
51661;DHT22;37741;49.748;8.490;2023-06-14T06:50:20;22.20;43.10
51661;DHT22;37741;49.748;8.490;2023-06-14T06:52:48;22.20;43.00
51661;DHT22;37741;49.748;8.490;2023-06-14T06:55:14;22.30;43.00
51661;DHT22;37741;49.748;8.490;2023-06-14T06:57:40;22.30;43.00
51661;DHT22;37741;49.748;8.490;2023-06-14T07:00:06;22.30;42.90
51661;DHT22;37741;49.748;8.490;2023-06-14T07:02:36;22.30;42.80
51661;DHT22;37741;49.748;8.490;2023-06-14T07:05:02;22.30;42.80
51661;DHT22;37741;49.748;8.490;2023-06-14T07:07:28;22.30;42.80
51661;DHT22;37741;49.748;8.490;2023-06-14T07:09:53;22.30;42.90
51661;DHT22;37741;49.748;8.490;2023-06-14T07:12:19;22.30;42.90
51661;DHT22;37741;49.748;8.490;2023-06-14T07:14:45;22.30;42.90
51661;DHT22;37741;49.748;8.490;2023-06-14T07:17:11;22.30;42.90
51661;DHT22;37741;49.748;8.490;2023-06-14T07:19:37;22.30;43.60
51661;DHT22;37741;49.748;8.490;2023-06-14T07:22:02;22.30;42.90
51661;DHT22;37741;49.748;8.490;2023-06-14T07:24:28;22.30;43.00
51661;DHT22;37741;49.748;8.490;2023-06-14T07:26:54;22.30;43.00
51661;DHT22;37741;49.748;8.490;2023-06-14T07:29:20;22.30;43.00
51661;DHT22;37741;49.748;8.490;2023-06-14T07:31:46;22.30;42.90
51661;DHT22;37741;49.748;8.490;2023-06-14T07:34:12;22.20;42.90
51661;DHT22;37741;49.748;8.490;2023-06-14T07:36:37;22.20;43.10
51661;DHT22;37741;49.748;8.490;2023-06-14T07:39:04;22.20;43.20
51661;DHT22;37741;49.748;8.490;2023-06-14T07:41:31;22.20;43.30
51661;DHT22;37741;49.748;8.490;2023-06-14T07:43:56;22.10;43.40
51661;DHT22;37741;49.748;8.490;2023-06-14T07:46:22;22.10;43.40
51661;DHT22;37741;49.748;8.490;2023-06-14T07:48:48;22.00;43.50
51661;DHT22;37741;49.748;8.490;2023-06-14T07:51:13;22.00;43.60
51661;DHT22;37741;49.748;8.490;2023-06-14T07:53:39;21.90;43.60
51661;DHT22;37741;49.748;8.490;2023-06-14T07:56:06;21.90;43.70
51661;DHT22;37741;49.748;8.490;2023-06-14T07:58:31;21.90;43.90
51661;DHT22;37741;49.748;8.490;2023-06-14T08:00:57;21.80;43.90
51661;DHT22;37741;49.748;8.490;2023-06-14T08:03:23;21.80;44.00
51661;DHT22;37741;49.748;8.490;2023-06-14T08:05:49;21.80;44.10
51661;DHT22;37741;49.748;8.490;2023-06-14T08:08:15;21.70;44.20
51661;DHT22;37741;49.748;8.490;2023-06-14T08:10:41;21.70;44.30
51661;DHT22;37741;49.748;8.490;2023-06-14T08:13:07;21.70;44.30
51661;DHT22;37741;49.748;8.490;2023-06-14T08:15:34;21.70;44.40
51661;DHT22;37741;49.748;8.490;2023-06-14T08:18:00;21.70;44.40
51661;DHT22;37741;49.748;8.490;2023-06-14T08:20:26;21.70;44.50
51661;DHT22;37741;49.748;8.490;2023-06-14T08:22:52;21.60;44.40
51661;DHT22;37741;49.748;8.490;2023-06-14T08:25:22;21.60;44.50
51661;DHT22;37741;49.748;8.490;2023-06-14T08:27:47;21.60;44.40
51661;DHT22;37741;49.748;8.490;2023-06-14T08:30:13;21.60;44.40
51661;DHT22;37741;49.748;8.490;2023-06-14T08:32:39;21.60;44.30
51661;DHT22;37741;49.748;8.490;2023-06-14T08:35:05;21.60;44.30
51661;DHT22;37741;49.748;8.490;2023-06-14T08:37:32;21.60;44.30
51661;DHT22;37741;49.748;8.490;2023-06-14T08:39:58;21.60;44.30
51661;DHT22;37741;49.748;8.490;2023-06-14T08:42:24;21.60;44.20
51661;DHT22;37741;49.748;8.490;2023-06-14T08:44:50;21.60;44.40
51661;DHT22;37741;49.748;8.490;2023-06-14T08:47:16;21.60;44.30
51661;DHT22;37741;49.748;8.490;2023-06-14T08:49:46;21.50;44.20
51661;DHT22;37741;49.748;8.490;2023-06-14T08:52:13;21.50;44.10
51661;DHT22;37741;49.748;8.490;2023-06-14T08:54:41;21.60;44.30
51661;DHT22;37741;49.748;8.490;2023-06-14T08:57:13;21.60;44.20
51661;DHT22;37741;49.748;8.490;2023-06-14T08:59:47;21.60;44.10
51661;DHT22;37741;49.748;8.490;2023-06-14T09:02:17;21.50;44.10
51661;DHT22;37741;49.748;8.490;2023-06-14T09:04:45;21.50;44.00
51661;DHT22;37741;49.748;8.490;2023-06-14T09:07:11;21.50;44.00
51661;DHT22;37741;49.748;8.490;2023-06-14T09:09:41;21.60;44.00
51661;DHT22;37741;49.748;8.490;2023-06-14T09:12:09;21.50;43.80
51661;DHT22;37741;49.748;8.490;2023-06-14T09:14:36;21.50;43.70
51661;DHT22;37741;49.748;8.490;2023-06-14T09:17:04;21.60;43.80
51661;DHT22;37741;49.748;8.490;2023-06-14T09:19:30;21.60;43.70
51661;DHT22;37741;49.748;8.490;2023-06-14T09:21:55;21.60;43.80
51661;DHT22;37741;49.748;8.490;2023-06-14T09:24:21;21.60;43.70
51661;DHT22;37741;49.748;8.490;2023-06-14T09:26:51;21.60;43.70
51661;DHT22;37741;49.748;8.490;2023-06-14T09:29:17;21.60;43.70
51661;DHT22;37741;49.748;8.490;2023-06-14T09:31:45;21.60;43.70
51661;DHT22;37741;49.748;8.490;2023-06-14T09:34:11;21.60;43.60
51661;DHT22;37741;49.748;8.490;2023-06-14T09:36:39;21.60;43.60
51661;DHT22;37741;49.748;8.490;2023-06-14T09:39:05;21.60;43.70
51661;DHT22;37741;49.748;8.490;2023-06-14T09:41:35;21.70;43.60
51661;DHT22;37741;49.748;8.490;2023-06-14T09:44:03;21.70;43.60
51661;DHT22;37741;49.748;8.490;2023-06-14T09:46:29;21.80;43.50
51661;DHT22;37741;49.748;8.490;2023-06-14T09:48:59;21.80;43.50
51661;DHT22;37741;49.748;8.490;2023-06-14T09:51:25;21.80;43.20
51661;DHT22;37741;49.748;8.490;2023-06-14T09:53:52;21.90;43.20
51661;DHT22;37741;49.748;8.490;2023-06-14T09:56:40;21.90;43.20
51661;DHT22;37741;49.748;8.490;2023-06-14T09:59:06;21.90;42.90
51661;DHT22;37741;49.748;8.490;2023-06-14T10:01:35;22.00;42.90
51661;DHT22;37741;49.748;8.490;2023-06-14T10:04:04;22.00;42.70
51661;DHT22;37741;49.748;8.490;2023-06-14T10:06:32;22.10;42.80
51661;DHT22;37741;49.748;8.490;2023-06-14T10:09:04;22.10;42.70
51661;DHT22;37741;49.748;8.490;2023-06-14T10:11:31;22.10;42.60
51661;DHT22;37741;49.748;8.490;2023-06-14T10:13:57;22.20;42.90
51661;DHT22;37741;49.748;8.490;2023-06-14T10:19:34;22.20;42.50
51661;DHT22;37741;49.748;8.490;2023-06-14T10:22:24;22.20;42.30
51661;DHT22;37741;49.748;8.490;2023-06-14T10:24:51;22.30;42.30
51661;DHT22;37741;49.748;8.490;2023-06-14T10:27:17;22.30;42.30
51661;DHT22;37741;49.748;8.490;2023-06-14T10:32:18;22.40;42.10
51661;DHT22;37741;49.748;8.490;2023-06-14T10:34:54;22.40;42.10
51661;DHT22;37741;49.748;8.490;2023-06-14T10:37:20;22.40;42.00
51661;DHT22;37741;49.748;8.490;2023-06-14T10:39:46;22.50;42.10
51661;DHT22;37741;49.748;8.490;2023-06-14T10:42:13;22.50;41.90
51661;DHT22;37741;49.748;8.490;2023-06-14T10:44:55;22.50;42.20
51661;DHT22;37741;49.748;8.490;2023-06-14T10:47:31;22.60;41.80
51661;DHT22;37741;49.748;8.490;2023-06-14T10:50:03;22.60;41.80
51661;DHT22;37741;49.748;8.490;2023-06-14T10:52:33;22.60;41.60
51661;DHT22;37741;49.748;8.490;2023-06-14T10:55:17;22.70;41.60
51661;DHT22;37741;49.748;8.490;2023-06-14T10:57:51;22.70;41.50
51661;DHT22;37741;49.748;8.490;2023-06-14T11:00:22;22.70;41.50
51661;DHT22;37741;49.748;8.490;2023-06-14T11:05:29;22.70;41.60
51661;DHT22;37741;49.748;8.490;2023-06-14T11:08:21;22.70;41.50
51661;DHT22;37741;49.748;8.490;2023-06-14T11:10:50;22.80;41.60
51661;DHT22;37741;49.748;8.490;2023-06-14T11:13:16;22.70;41.50
51661;DHT22;37741;49.748;8.490;2023-06-14T11:15:47;22.80;41.50
51661;DHT22;37741;49.748;8.490;2023-06-14T11:18:13;22.80;41.60
51661;DHT22;37741;49.748;8.490;2023-06-14T11:20:39;22.90;41.60
51661;DHT22;37741;49.748;8.490;2023-06-14T11:23:05;22.90;41.50
51661;DHT22;37741;49.748;8.490;2023-06-14T11:25:31;22.90;41.40
51661;DHT22;37741;49.748;8.490;2023-06-14T11:27:57;22.90;41.30
51661;DHT22;37741;49.748;8.490;2023-06-14T11:30:24;23.00;41.30
51661;DHT22;37741;49.748;8.490;2023-06-14T11:32:51;23.00;41.30
51661;DHT22;37741;49.748;8.490;2023-06-14T11:35:18;23.00;41.20
51661;DHT22;37741;49.748;8.490;2023-06-14T11:37:44;23.10;41.20
51661;DHT22;37741;49.748;8.490;2023-06-14T11:40:11;23.20;41.00
51661;DHT22;37741;49.748;8.490;2023-06-14T11:42:38;23.20;41.10
51661;DHT22;37741;49.748;8.490;2023-06-14T11:45:07;23.20;41.00
51661;DHT22;37741;49.748;8.490;2023-06-14T11:47:36;23.20;40.90
51661;DHT22;37741;49.748;8.490;2023-06-14T11:50:03;23.30;40.90
51661;DHT22;37741;49.748;8.490;2023-06-14T11:52:30;23.30;40.90
51661;DHT22;37741;49.748;8.490;2023-06-14T11:54:56;23.30;40.80
51661;DHT22;37741;49.748;8.490;2023-06-14T11:57:22;23.30;40.80
51661;DHT22;37741;49.748;8.490;2023-06-14T11:59:48;23.40;40.80
51661;DHT22;37741;49.748;8.490;2023-06-14T12:02:18;23.40;40.80
51661;DHT22;37741;49.748;8.490;2023-06-14T12:04:46;23.40;40.70
51661;DHT22;37741;49.748;8.490;2023-06-14T12:07:13;23.50;40.60
51661;DHT22;37741;49.748;8.490;2023-06-14T12:12:24;23.60;40.70
51661;DHT22;37741;49.748;8.490;2023-06-14T12:14:54;23.60;40.60
51661;DHT22;37741;49.748;8.490;2023-06-14T12:17:20;23.60;40.50
51661;DHT22;37741;49.748;8.490;2023-06-14T12:19:46;23.60;40.50
51661;DHT22;37741;49.748;8.490;2023-06-14T12:22:13;23.70;40.40
51661;DHT22;37741;49.748;8.490;2023-06-14T12:24:39;23.70;40.40
51661;DHT22;37741;49.748;8.490;2023-06-14T12:27:05;23.70;40.20
51661;DHT22;37741;49.748;8.490;2023-06-14T12:29:31;23.80;40.20
51661;DHT22;37741;49.748;8.490;2023-06-14T12:31:57;23.80;40.20
51661;DHT22;37741;49.748;8.490;2023-06-14T12:34:26;23.90;40.20
51661;DHT22;37741;49.748;8.490;2023-06-14T12:36:56;23.90;39.90
51661;DHT22;37741;49.748;8.490;2023-06-14T12:39:23;24.00;39.90
51661;DHT22;37741;49.748;8.490;2023-06-14T12:41:50;24.10;39.80
51661;DHT22;37741;49.748;8.490;2023-06-14T12:44:15;24.10;39.60
51661;DHT22;37741;49.748;8.490;2023-06-14T12:46:42;24.20;39.60
51661;DHT22;37741;49.748;8.490;2023-06-14T12:49:09;24.20;39.60
51661;DHT22;37741;49.748;8.490;2023-06-14T12:51:36;24.20;39.60
51661;DHT22;37741;49.748;8.490;2023-06-14T12:54:02;24.30;39.20
51661;DHT22;37741;49.748;8.490;2023-06-14T12:56:28;24.40;39.30
51661;DHT22;37741;49.748;8.490;2023-06-14T12:58:53;24.40;38.80
51661;DHT22;37741;49.748;8.490;2023-06-14T13:01:19;24.50;38.90
51661;DHT22;37741;49.748;8.490;2023-06-14T13:03:46;24.60;38.80
51661;DHT22;37741;49.748;8.490;2023-06-14T13:06:15;24.70;38.50
51661;DHT22;37741;49.748;8.490;2023-06-14T13:08:40;24.70;38.30
51661;DHT22;37741;49.748;8.490;2023-06-14T13:11:06;24.80;38.30
51661;DHT22;37741;49.748;8.490;2023-06-14T13:13:31;24.80;38.10
51661;DHT22;37741;49.748;8.490;2023-06-14T13:15:57;24.90;37.90
51661;DHT22;37741;49.748;8.490;2023-06-14T13:18:22;24.90;37.60
51661;DHT22;37741;49.748;8.490;2023-06-14T13:20:48;25.00;37.60
51661;DHT22;37741;49.748;8.490;2023-06-14T13:23:14;25.00;37.70
51661;DHT22;37741;49.748;8.490;2023-06-14T13:25:40;25.00;37.80
51661;DHT22;37741;49.748;8.490;2023-06-14T13:28:06;25.10;37.70
51661;DHT22;37741;49.748;8.490;2023-06-14T13:30:32;25.20;37.60
51661;DHT22;37741;49.748;8.490;2023-06-14T13:32:59;25.30;37.60
51661;DHT22;37741;49.748;8.490;2023-06-14T13:35:25;25.40;37.50
51661;DHT22;37741;49.748;8.490;2023-06-14T13:37:51;25.50;37.60
51661;DHT22;37741;49.748;8.490;2023-06-14T13:40:17;25.50;37.40
51661;DHT22;37741;49.748;8.490;2023-06-14T13:42:43;25.60;37.10
51661;DHT22;37741;49.748;8.490;2023-06-14T13:45:09;25.60;36.90
51661;DHT22;37741;49.748;8.490;2023-06-14T13:47:35;25.70;37.00
51661;DHT22;37741;49.748;8.490;2023-06-14T13:50:02;25.70;37.20
51661;DHT22;37741;49.748;8.490;2023-06-14T13:52:28;25.80;37.10
51661;DHT22;37741;49.748;8.490;2023-06-14T13:54:53;25.90;36.80
51661;DHT22;37741;49.748;8.490;2023-06-14T13:57:19;25.90;36.80
51661;DHT22;37741;49.748;8.490;2023-06-14T13:59:45;26.00;36.80
51661;DHT22;37741;49.748;8.490;2023-06-14T14:02:11;26.10;36.90
51661;DHT22;37741;49.748;8.490;2023-06-14T14:04:37;26.10;36.50
51661;DHT22;37741;49.748;8.490;2023-06-14T14:07:04;26.20;36.60
51661;DHT22;37741;49.748;8.490;2023-06-14T14:09:31;26.30;36.60
51661;DHT22;37741;49.748;8.490;2023-06-14T14:11:58;26.30;36.40
51661;DHT22;37741;49.748;8.490;2023-06-14T14:14:24;26.40;36.40
51661;DHT22;37741;49.748;8.490;2023-06-14T14:16:50;26.40;36.10
51661;DHT22;37741;49.748;8.490;2023-06-14T14:19:23;26.50;36.10
51661;DHT22;37741;49.748;8.490;2023-06-14T14:21:49;26.50;35.90
51661;DHT22;37741;49.748;8.490;2023-06-14T14:24:15;26.50;35.80
51661;DHT22;37741;49.748;8.490;2023-06-14T14:26:41;26.60;35.80
51661;DHT22;37741;49.748;8.490;2023-06-14T14:29:07;26.60;35.60
51661;DHT22;37741;49.748;8.490;2023-06-14T14:31:33;26.70;35.90
51661;DHT22;37741;49.748;8.490;2023-06-14T14:33:58;26.60;36.20
51661;DHT22;37741;49.748;8.490;2023-06-14T14:36:24;26.70;35.90
51661;DHT22;37741;49.748;8.490;2023-06-14T14:38:49;26.70;36.30
51661;DHT22;37741;49.748;8.490;2023-06-14T14:41:22;26.70;35.90
51661;DHT22;37741;49.748;8.490;2023-06-14T14:43:47;26.80;35.90
51661;DHT22;37741;49.748;8.490;2023-06-14T14:46:13;26.90;36.00
51661;DHT22;37741;49.748;8.490;2023-06-14T14:48:38;27.00;35.80
51661;DHT22;37741;49.748;8.490;2023-06-14T14:51:04;27.10;35.60
51661;DHT22;37741;49.748;8.490;2023-06-14T14:53:30;27.20;35.40
51661;DHT22;37741;49.748;8.490;2023-06-14T14:55:55;27.30;35.40
51661;DHT22;37741;49.748;8.490;2023-06-14T14:58:21;27.30;35.30
51661;DHT22;37741;49.748;8.490;2023-06-14T15:00:47;27.40;34.90
51661;DHT22;37741;49.748;8.490;2023-06-14T15:03:16;27.40;35.10
51661;DHT22;37741;49.748;8.490;2023-06-14T15:05:41;27.40;35.70
51661;DHT22;37741;49.748;8.490;2023-06-14T15:08:07;27.40;35.30
51661;DHT22;37741;49.748;8.490;2023-06-14T15:10:37;27.40;35.00
51661;DHT22;37741;49.748;8.490;2023-06-14T15:13:05;27.40;35.60
51661;DHT22;37741;49.748;8.490;2023-06-14T15:15:31;27.50;35.40
51661;DHT22;37741;49.748;8.490;2023-06-14T15:17:57;27.50;35.30
51661;DHT22;37741;49.748;8.490;2023-06-14T15:20:30;27.60;35.30
51661;DHT22;37741;49.748;8.490;2023-06-14T15:22:56;27.60;35.10
51661;DHT22;37741;49.748;8.490;2023-06-14T15:25:28;27.70;35.50
51661;DHT22;37741;49.748;8.490;2023-06-14T15:27:55;27.80;34.50
51661;DHT22;37741;49.748;8.490;2023-06-14T15:30:21;27.80;35.10
51661;DHT22;37741;49.748;8.490;2023-06-14T15:32:47;27.80;35.10
51661;DHT22;37741;49.748;8.490;2023-06-14T15:35:15;27.80;34.90
51661;DHT22;37741;49.748;8.490;2023-06-14T15:37:40;27.80;34.90
51661;DHT22;37741;49.748;8.490;2023-06-14T15:40:06;27.80;35.20
51661;DHT22;37741;49.748;8.490;2023-06-14T15:42:32;27.70;34.70
51661;DHT22;37741;49.748;8.490;2023-06-14T15:44:58;27.70;34.70